CYYF

Penticton Airport

Penticton, , Canada
METAR CYYF 171000Z 18008KT 15SM OVC026 03/01 A3026 RMK SC8 SLP262
Observed Flight Rules
Jan-17 @ 10:00 UTC (58 minutes ago) Marginal Visual Flight Rules
Wind Visibility Clouds
180° at 8 knots 15 miles
  • Overcast at 2,600' AGL
Temperatures Readings
Current 3°C / 37°F
Dewpoint 1°C / 34°F
Humidity 87%
Altimeter 30.26" Hg
Pressure 1026.2 hPa
Elevation 344
METAR CYYF 171000Z 18008KT 15SM OVC026 03/01 A3026 RMK SC8 SLP262
Observed Flight Rules
Jan-17 @ 10:00 UTC
(58 minutes ago)
MVFR
Wind Visibility
180° at 8 knots 15 miles
Clouds
  • Overcast at 2,600' AGL
Temperature Dewpoint
3°C / 37°F 1°C / 34°F
Humidity Altimeter Pressure
87% 30.26" Hg 1026.2 hPa